De Land, Illinois
Current Conditions -  °F | °C
As of 11:53 AM on Friday 28 Nov 2014 (Local Time) from KCMI Reporting Station
Clear Clear  
Wind Chill: 22°   Ceiling: Unl
Heat Index: 34°   Visibility: 8mi
Dew Point: 27°   Wind: 24mph
Humidity: 75%   Direction: 170°S
Pressure: 30.13"   Gusts: 29mph
Location:  40.12°N, 88.65°W
Report Text: KCMI 281753Z 17021G25KT 8SM CLR 01/M03 A3013 RMK AO2 PRESFR SLP212 T00111028 10011 21067 58047 $
Loading
Personal Weather Stations






























Interactive Weather Map New forecast layout! Learn more

10-Day Weather Forecast

Advertisements
Track Severe Weather on mobile